Time;durP1;ratioP1;P1;durP2;ratioP2;P2;SDS_P1;SDS_P2;PMS_P1;PMS_P2;Temp;Humidity;BMP_temperature;BMP_pressure;BME280_temperature;BME280_humidity;BME280_pressure;Samples;Min_cycle;Max_cycle;Signal;HPM_P1;HPM_P2
2022/12/24 10:23:13;;;;;;;10.80;3.65;;;;;;;12.37;69.84;99856.41;1078869;31;20391;31
2022/12/24 10:26:32;;;;;;;11.35;2.67;;;;;;;12.43;69.37;99853.06;1087118;54;20073;-78
2022/12/24 10:27:39;;;;;;;9.98;2.90;;;;;;;12.39;69.27;99854.38;1086985;54;20802;-78
2022/12/24 10:28:50;;;;;;;9.95;2.83;;;;;;;12.47;69.63;99849.03;1087350;54;20094;-77
2022/12/24 10:30:05;;;;;;;10.52;2.95;;;;;;;12.53;69.11;99850.22;1087415;46;20034;-76
2022/12/24 10:31:10;;;;;;;11.40;2.85;;;;;;;12.45;69.52;99848.38;1094102;39;20761;-78
2022/12/24 10:32:20;;;;;;;12.05;2.95;;;;;;;12.45;69.22;99853.75;1087382;54;20302;-78
2022/12/24 10:33:33;;;;;;;13.98;3.58;;;;;;;12.25;69.24;99862.03;1087541;54;20042;-78
2022/12/24 10:34:43;;;;;;;11.52;3.13;;;;;;;12.21;69.61;99859.84;1087458;54;20062;-78
2022/12/24 10:35:49;;;;;;;14.48;3.70;;;;;;;12.09;69.63;99860.09;1087464;54;20031;-79
2022/12/24 10:36:53;;;;;;;14.07;3.50;;;;;;;12.04;69.82;99859.75;1087521;54;20099;-78
2022/12/24 10:37:56;;;;;;;15.43;4.03;;;;;;;12.08;69.78;99868.31;1087550;54;20059;-79
2022/12/24 10:39:33;;;;;;;15.32;3.60;;;;;;;12.07;69.22;99877.34;1087496;54;20034;-79
2022/12/24 10:40:41;;;;;;;13.68;3.72;;;;;;;12.11;69.22;99871.50;1087459;39;21081;-78
2022/12/24 10:41:45;;;;;;;12.80;3.67;;;;;;;12.05;69.31;99868.63;1087529;39;20651;-77
2022/12/24 10:42:57;;;;;;;17.58;3.63;;;;;;;12.11;69.07;99876.00;1087035;54;20057;-76
2022/12/24 10:44:15;;;;;;;13.20;3.42;;;;;;;12.06;69.30;99868.44;1087122;54;20038;-77
2022/12/24 10:45:24;;;;;;;12.93;3.33;;;;;;;12.11;69.40;99863.47;1088801;39;20699;-76
2022/12/24 10:46:49;;;;;;;13.00;3.47;;;;;;;12.06;69.30;99871.13;1085728;54;20067;-76
2022/12/24 10:48:27;;;;;;;15.43;3.83;;;;;;;11.97;69.18;99867.56;1086276;54;20035;-76
2022/12/24 10:49:36;;;;;;;15.77;3.83;;;;;;;12.05;69.11;99868.63;1085052;54;20042;-76
2022/12/24 10:50:45;;;;;;;15.55;3.88;;;;;;;12.04;68.84;99867.78;1089098;39;20236;-75
2022/12/24 10:51:54;;;;;;;12.23;3.67;;;;;;;12.03;69.15;99860.75;1086251;54;20049;-75
2022/12/24 10:53:03;;;;;;;15.05;4.10;;;;;;;11.88;69.25;99862.28;1088799;39;20563;-77
2022/12/24 10:54:14;;;;;;;12.32;3.97;;;;;;;11.83;68.89;99866.28;1086293;54;20045;-76
2022/12/24 10:55:22;;;;;;;12.73;3.65;;;;;;;11.88;69.15;99863.13;1086542;54;20064;-76
2022/12/24 10:56:29;;;;;;;14.57;3.65;;;;;;;11.92;68.87;99855.63;1086949;54;20057;-75
2022/12/24 10:57:31;;;;;;;17.00;4.07;;;;;;;11.82;69.22;99863.75;1087061;54;20061;-76
2022/12/24 10:58:36;;;;;;;12.60;3.63;;;;;;;11.82;69.22;99869.97;1086670;54;20253;-76
2022/12/24 10:59:48;;;;;;;12.73;3.95;;;;;;;11.79;69.07;99877.47;1087047;54;20038;-75
2022/12/24 11:00:54;;;;;;;11.38;3.00;;;;;;;11.89;69.37;99877.34;1086878;54;20062;-76
2022/12/24 11:02:00;;;;;;;18.52;4.68;;;;;;;11.83;69.17;99876.16;1086806;54;20057;-75
2022/12/24 11:03:07;;;;;;;16.45;3.63;;;;;;;11.83;68.81;99881.50;1087087;54;20065;-76
2022/12/24 11:04:17;;;;;;;15.20;3.72;;;;;;;11.78;69.04;99886.50;1086835;54;20038;-77
2022/12/24 11:05:30;;;;;;;15.23;4.00;;;;;;;11.84;69.32;99888.53;1087109;54;20058;-76
2022/12/24 11:06:34;;;;;;;11.45;3.45;;;;;;;11.80;69.37;99876.47;1086974;54;20038;-75
2022/12/24 11:07:36;;;;;;;16.08;3.55;;;;;;;11.78;69.51;99875.78;1087173;54;20030;-74
2022/12/24 11:08:42;;;;;;;12.48;3.60;;;;;;;11.81;69.44;99883.50;1087013;46;20035;-74
2022/12/24 11:09:54;;;;;;;14.23;4.60;;;;;;;11.91;69.11;99878.06;1086743;54;20042;-79
2022/12/24 11:11:01;;;;;;;11.88;3.05;;;;;;;11.81;69.24;99894.19;1086012;54;20038;-75
2022/12/24 11:12:18;;;;;;;12.70;3.35;;;;;;;11.77;69.10;99884.81;1085377;54;20035;-75
2022/12/24 11:13:24;;;;;;;13.75;3.33;;;;;;;11.83;69.51;99887.72;1085754;54;20053;-77
2022/12/24 11:14:35;;;;;;;14.90;3.42;;;;;;;11.76;69.87;99888.50;1085763;54;20042;-75
2022/12/24 11:15:36;;;;;;;13.40;3.63;;;;;;;11.75;70.69;99893.03;1085580;54;20051;-76
2022/12/24 11:16:41;;;;;;;10.80;3.15;;;;;;;11.70;71.00;99888.13;1086076;54;20595;-78
2022/12/24 11:17:51;;;;;;;17.23;3.85;;;;;;;11.72;71.42;99887.97;1086088;54;20046;-78
2022/12/24 11:18:57;;;;;;;15.38;3.47;;;;;;;11.67;72.07;99887.56;1085757;46;20085;-76
2022/12/24 11:20:02;;;;;;;16.30;3.33;;;;;;;11.60;72.63;99883.84;1085323;54;20389;-77
2022/12/24 11:21:07;;;;;;;12.27;3.60;;;;;;;11.42;74.04;99879.34;1085287;54;20601;-75
2022/12/24 11:22:18;;;;;;;18.30;4.70;;;;;;;11.29;75.37;99898.50;1086189;46;20058;-76
2022/12/24 11:23:23;;;;;;;15.95;5.40;;;;;;;11.45;74.53;99892.44;1086105;54;20034;-78
2022/12/24 11:24:27;;;;;;;15.50;6.78;;;;;;;11.31;75.79;99901.84;1085228;46;20065;-79
2022/12/24 11:25:34;;;;;;;15.75;5.50;;;;;;;11.33;75.29;99894.53;1084620;39;20114;-74
2022/12/24 11:26:35;;;;;;;12.80;4.75;;;;;;;11.30;75.53;99902.84;1083902;54;20079;-77
2022/12/24 11:27:49;;;;;;;11.63;4.13;;;;;;;11.23;76.05;99913.31;1083393;54;20038;-78
2022/12/24 11:29:16;;;;;;;14.48;4.90;;;;;;;11.20;75.71;99902.91;1083876;54;20062;-77
2022/12/24 11:30:27;;;;;;;14.80;3.90;;;;;;;11.21;75.78;99893.06;1083278;54;20671;-77
2022/12/24 11:31:34;;;;;;;11.73;3.35;;;;;;;11.16;75.91;99900.69;1083707;54;20039;-77
2022/12/24 11:32:36;;;;;;;15.35;3.72;;;;;;;11.24;75.96;99903.47;1083915;46;20035;-76
2022/12/24 11:33:49;;;;;;;14.10;2.97;;;;;;;11.23;75.93;99904.47;1083184;54;20038;-76
2022/12/24 11:34:50;;;;;;;13.60;3.40;;;;;;;11.28;75.55;99906.69;1082989;54;20038;-76
2022/12/24 11:36:05;;;;;;;13.55;3.65;;;;;;;11.26;75.84;99900.63;1083219;54;20061;-77
2022/12/24 11:37:13;;;;;;;13.43;2.97;;;;;;;11.37;75.42;99901.22;1083856;54;20069;-76
2022/12/24 11:38:22;;;;;;;10.65;3.20;;;;;;;11.30;76.18;99907.34;1085592;54;20038;-77
2022/12/24 11:39:27;;;;;;;14.63;3.72;;;;;;;11.41;75.54;99907.13;1085630;54;20038;-76
2022/12/24 11:40:34;;;;;;;12.90;4.15;;;;;;;11.44;75.51;99905.97;1085838;54;20651;-77
2022/12/24 11:41:39;;;;;;;11.93;3.83;;;;;;;11.48;75.45;99904.66;1086090;54;20061;-79
2022/12/24 11:42:43;;;;;;;11.13;3.38;;;;;;;11.50;75.80;99902.69;1086623;46;20061;-78
2022/12/24 11:43:50;;;;;;;13.63;4.32;;;;;;;11.57;75.70;99903.75;1086477;54;20034;-81
2022/12/24 11:44:55;;;;;;;10.20;3.10;;;;;;;11.47;75.64;99905.66;1086069;54;20044;-77
2022/12/24 11:46:12;;;;;;;12.15;3.40;;;;;;;11.57;75.38;99902.91;1086033;54;20065;-78
2022/12/24 11:47:14;;;;;;;10.05;3.72;;;;;;;11.49;75.86;99901.00;1086361;47;20057;-78
2022/12/24 11:48:29;;;;;;;11.27;3.35;;;;;;;11.43;76.14;99902.47;1085939;54;20119;-78
2022/12/24 11:49:34;;;;;;;13.40;3.92;;;;;;;11.42;76.23;99890.06;1086144;54;20054;-78
2022/12/24 11:50:36;;;;;;;15.35;3.53;;;;;;;11.38;76.30;99902.09;1088578;39;20451;-75
2022/12/24 11:51:42;;;;;;;11.98;3.75;;;;;;;11.32;76.41;99906.22;1085005;46;20145;-75
2022/12/24 11:52:46;;;;;;;12.43;3.13;;;;;;;11.56;75.90;99902.06;1084975;54;20042;-77
2022/12/24 11:53:53;;;;;;;13.23;3.30;;;;;;;11.44;75.92;99895.25;1085129;54;20102;-77
2022/12/24 11:55:07;;;;;;;14.43;4.18;;;;;;;11.41;75.86;99892.91;1084978;54;20045;-76
2022/12/24 11:56:19;;;;;;;12.68;3.88;;;;;;;11.38;76.11;99894.88;1085720;46;20541;-76
2022/12/24 11:57:24;;;;;;;14.77;3.47;;;;;;;11.43;76.00;99894.44;1085275;54;20077;-77
2022/12/24 11:58:39;;;;;;;14.45;4.35;;;;;;;11.38;75.91;99884.19;1085799;54;20038;-76
2022/12/24 11:59:44;;;;;;;14.63;3.83;;;;;;;11.34;76.14;99893.50;1084847;54;20568;-76
2022/12/24 12:00:50;;;;;;;14.18;3.28;;;;;;;11.35;75.88;99889.84;1085606;47;20041;-78
2022/12/24 12:02:13;;;;;;;16.13;3.97;;;;;;;11.43;75.56;99880.22;1086632;54;20038;-78
2022/12/24 12:03:26;;;;;;;13.52;3.38;;;;;;;11.43;75.70;99878.38;1086153;54;20035;-78
2022/12/24 12:04:34;;;;;;;13.50;4.57;;;;;;;11.47;75.45;99877.06;1085489;54;20038;-77
2022/12/24 12:05:38;;;;;;;15.75;3.88;;;;;;;11.49;75.31;99871.56;1086498;39;20504;-78
2022/12/24 12:06:46;;;;;;;15.88;4.25;;;;;;;11.48;75.51;99876.06;1085485;54;20045;-77
2022/12/24 12:07:52;;;;;;;11.68;3.00;;;;;;;11.71;74.74;99867.53;1085494;54;20189;-78
2022/12/24 12:08:59;;;;;;;16.70;3.72;;;;;;;11.55;74.96;99873.59;1085479;54;20065;-77
2022/12/24 12:10:05;;;;;;;10.70;2.97;;;;;;;11.53;74.99;99873.78;1085084;54;20778;-77
2022/12/24 12:11:15;;;;;;;17.90;4.65;;;;;;;11.59;74.70;99866.97;1085458;54;20065;-79
2022/12/24 12:12:21;;;;;;;15.48;3.78;;;;;;;11.53;74.88;99860.38;1085833;54;20624;-79
2022/12/24 12:13:36;;;;;;;13.85;4.15;;;;;;;11.56;74.82;99869.94;1085483;54;20038;-77
2022/12/24 12:14:42;;;;;;;13.48;3.72;;;;;;;11.69;74.65;99869.53;1083613;54;20054;-77
2022/12/24 12:15:49;;;;;;;14.05;4.00;;;;;;;11.76;74.22;99869.75;1083287;54;20070;-77
2022/12/24 12:17:06;;;;;;;14.95;4.05;;;;;;;11.69;74.45;99870.38;1083826;54;20050;-77
2022/12/24 12:18:12;;;;;;;14.65;3.45;;;;;;;11.73;74.57;99875.41;1084109;39;20400;-75
2022/12/24 12:19:16;;;;;;;12.95;3.40;;;;;;;11.89;74.25;99872.84;1083597;54;20141;-75
2022/12/24 12:20:22;;;;;;;14.32;4.18;;;;;;;11.75;74.23;99878.78;1083582;54;20073;-77
2022/12/24 12:21:34;;;;;;;14.80;3.97;;;;;;;11.69;74.45;99882.91;1083733;54;20030;-77
2022/12/24 12:22:41;;;;;;;16.88;3.90;;;;;;;11.63;73.84;99875.50;1083747;54;20058;-77
2022/12/24 12:23:48;;;;;;;12.70;3.63;;;;;;;11.74;73.88;99877.94;1083504;54;21470;-77
2022/12/24 12:24:55;;;;;;;15.98;3.65;;;;;;;11.64;73.89;99874.53;1083961;39;20890;-77
2022/12/24 12:26:03;;;;;;;14.80;3.15;;;;;;;11.65;73.95;99873.53;1084316;47;20568;-79
2022/12/24 12:27:15;;;;;;;14.13;3.95;;;;;;;11.61;73.78;99872.16;1083861;54;20073;-78
2022/12/24 12:28:24;;;;;;;18.85;4.95;;;;;;;11.64;74.02;99872.66;1083924;54;20065;-77
2022/12/24 12:29:32;;;;;;;12.45;3.40;;;;;;;11.70;73.91;99885.44;1083829;54;20073;-77
2022/12/24 12:30:39;;;;;;;19.92;5.13;;;;;;;11.78;74.01;99879.28;1083319;54;20041;-77
2022/12/24 12:31:46;;;;;;;17.63;4.07;;;;;;;11.82;73.76;99879.81;1084307;54;20065;-77
2022/12/24 12:32:56;;;;;;;14.75;3.30;;;;;;;11.92;73.36;99880.56;1084383;46;20034;-77
2022/12/24 12:34:03;;;;;;;15.10;3.90;;;;;;;11.86;73.54;99875.84;1084529;46;20037;-76
2022/12/24 12:35:18;;;;;;;13.57;3.30;;;;;;;11.80;73.60;99876.47;1083767;54;20988;-77
2022/12/24 12:36:25;;;;;;;17.45;4.25;;;;;;;11.89;73.54;99875.53;1083893;54;20069;-77
2022/12/24 12:37:35;;;;;;;16.80;4.03;;;;;;;11.91;73.22;99875.38;1083966;54;20039;-77
2022/12/24 12:38:41;;;;;;;16.23;4.10;;;;;;;11.83;73.63;99882.34;1084022;54;20042;-77
2022/12/24 12:39:43;;;;;;;13.65;4.10;;;;;;;11.81;73.72;99891.53;1083929;54;20042;-77
2022/12/24 12:41:02;;;;;;;21.85;4.22;;;;;;;11.80;73.59;99888.03;1083710;54;20038;-77
2022/12/24 12:42:13;;;;;;;16.30;4.28;;;;;;;11.79;73.98;99894.38;1083854;54;20046;-78
2022/12/24 12:43:28;;;;;;;19.45;5.05;;;;;;;11.85;73.38;99896.41;1084184;54;20106;-77
2022/12/24 12:44:51;;;;;;;14.10;3.72;;;;;;;11.90;73.41;99898.66;1084360;54;20061;-78
2022/12/24 12:45:57;;;;;;;12.18;2.97;;;;;;;11.94;73.17;99889.28;1085930;54;20062;-78
2022/12/24 12:47:25;;;;;;;14.93;4.65;;;;;;;11.93;73.34;99886.78;1086112;46;20042;-78
2022/12/24 12:48:55;;;;;;;15.32;4.95;;;;;;;11.87;73.78;99880.22;1086074;54;20042;-79
2022/12/24 12:50:08;;;;;;;15.25;4.13;;;;;;;11.84;73.53;99884.03;1086491;54;20034;-78
2022/12/24 12:51:20;;;;;;;13.13;3.90;;;;;;;11.94;73.25;99883.94;1086064;54;21269;-78
2022/12/24 12:52:38;;;;;;;14.23;2.92;;;;;;;12.00;73.20;99883.31;1086021;54;20142;-77
2022/12/24 12:53:55;;;;;;;15.68;4.53;;;;;;;12.01;71.98;99879.63;1085795;54;20068;-77
2022/12/24 12:55:15;;;;;;;12.88;3.40;;;;;;;12.16;71.96;99879.91;1085905;54;20062;-78
2022/12/24 12:56:29;;;;;;;17.20;4.43;;;;;;;12.21;71.85;99884.78;1086229;54;20035;-76
2022/12/24 12:57:36;;;;;;;13.50;3.15;;;;;;;12.12;71.97;99870.50;1086039;54;20043;-77
2022/12/24 12:58:43;;;;;;;15.65;4.15;;;;;;;12.11;72.04;99884.91;1086285;54;20026;-77
2022/12/24 12:59:54;;;;;;;16.90;4.03;;;;;;;12.06;71.90;99875.66;1086808;46;20035;-77
2022/12/24 13:01:03;;;;;;;12.88;3.45;;;;;;;12.11;71.68;99892.94;1086482;54;20082;-77
2022/12/24 13:02:26;;;;;;;11.80;3.63;;;;;;;12.19;71.62;99892.13;1087969;54;20046;-76
2022/12/24 13:04:00;;;;;;;16.10;4.05;;;;;;;12.07;71.82;99893.41;1087988;39;20339;-76
2022/12/24 13:05:36;;;;;;;13.18;3.67;;;;;;;12.08;72.07;99887.06;1084082;54;20053;-76
2022/12/24 13:07:13;;;;;;;14.95;3.50;;;;;;;12.17;71.46;99880.75;1084543;54;20102;-77
2022/12/24 13:08:34;;;;;;;14.20;3.53;;;;;;;12.04;71.54;99877.66;1084316;54;20050;-76
2022/12/24 13:10:10;;;;;;;16.83;3.42;;;;;;;12.15;71.47;99880.06;1084141;54;20062;-75
2022/12/24 13:11:30;;;;;;;17.48;4.07;;;;;;;12.06;71.79;99876.50;1084034;54;20042;-76
2022/12/24 13:12:47;;;;;;;13.90;3.90;;;;;;;12.16;71.48;99884.44;1084496;54;20058;-76
2022/12/24 13:14:07;;;;;;;12.18;3.28;;;;;;;12.09;71.70;99883.41;1085778;54;20038;-75
2022/12/24 13:15:39;;;;;;;10.48;2.58;;;;;;;12.35;71.07;99874.47;1087865;54;20057;-77
2022/12/24 13:16:58;;;;;;;10.60;3.75;;;;;;;12.38;70.77;99885.72;1087066;54;20069;-79
2022/12/24 13:18:23;;;;;;;14.00;3.88;;;;;;;12.30;70.91;99883.00;1087630;54;20789;-78
2022/12/24 13:19:37;;;;;;;13.68;4.05;;;;;;;12.23;71.25;99879.28;1088871;46;20046;-77
2022/12/24 13:20:44;;;;;;;15.55;4.30;;;;;;;12.18;71.42;99885.13;1087069;54;20049;-77
2022/12/24 13:21:47;;;;;;;14.38;4.47;;;;;;;12.09;71.67;99878.03;1087051;54;20791;-78
2022/12/24 13:22:55;;;;;;;16.33;3.58;;;;;;;11.96;71.64;99881.09;1084052;54;20061;-77
2022/12/24 13:24:08;;;;;;;14.25;3.53;;;;;;;12.07;71.38;99880.84;1083523;54;20087;-77
2022/12/24 13:25:22;;;;;;;15.07;3.88;;;;;;;12.06;71.75;99886.38;1083974;54;20054;-78
2022/12/24 13:26:24;;;;;;;14.45;3.55;;;;;;;12.10;71.86;99877.00;1083390;54;20050;-77
2022/12/24 13:27:30;;;;;;;15.13;3.50;;;;;;;12.00;71.96;99875.28;1083615;54;20049;-77
2022/12/24 13:28:36;;;;;;;17.70;4.43;;;;;;;12.00;72.04;99879.81;1083734;54;20058;-77
2022/12/24 13:29:46;;;;;;;14.65;4.15;;;;;;;12.02;71.67;99885.84;1083318;46;20255;-76
2022/12/24 13:30:51;;;;;;;12.10;3.20;;;;;;;12.17;71.51;99886.13;1083097;54;20720;-78
2022/12/24 13:32:23;;;;;;;15.55;3.80;;;;;;;12.12;71.61;99885.72;1083531;54;20046;-77
2022/12/24 13:33:48;;;;;;;16.83;4.15;;;;;;;12.13;71.59;99887.41;1083152;54;20054;-78
2022/12/24 13:34:52;;;;;;;12.98;3.60;;;;;;;12.11;71.65;99890.25;1083451;54;20069;-77
2022/12/24 13:36:01;;;;;;;14.45;4.50;;;;;;;12.00;71.84;99886.00;1083417;54;20612;-77
2022/12/24 13:37:18;;;;;;;18.58;3.75;;;;;;;12.05;71.99;99888.19;1083853;54;20057;-77
2022/12/24 13:38:51;;;;;;;14.02;4.15;;;;;;;12.14;71.21;99884.56;1084036;54;20065;-77
2022/12/24 13:40:24;;;;;;;15.52;5.00;;;;;;;12.01;71.69;99878.81;1084014;54;20043;-76
2022/12/24 13:41:49;;;;;;;19.77;4.50;;;;;;;11.91;71.55;99883.41;1084277;31;20578;-77
2022/12/24 13:43:11;;;;;;;11.75;3.60;;;;;;;11.97;71.38;99878.28;1083855;54;20564;-78
2022/12/24 13:44:32;;;;;;;13.25;4.10;;;;;;;11.96;71.65;99881.94;1084097;54;20049;-78
2022/12/24 13:45:54;;;;;;;15.70;4.30;;;;;;;11.94;71.97;99886.59;1084386;54;20045;-78
2022/12/24 13:46:59;;;;;;;11.85;3.60;;;;;;;12.16;71.37;99892.47;1084418;39;20481;-79
2022/12/24 13:48:14;;;;;;;12.68;3.50;;;;;;;12.17;71.44;99884.25;1084102;54;20069;-78
2022/12/24 13:49:19;;;;;;;15.48;3.95;;;;;;;12.09;71.48;99880.72;1084194;54;20958;-77
2022/12/24 13:50:30;;;;;;;15.85;4.32;;;;;;;12.06;71.28;99884.53;1084095;54;20045;-79
2022/12/24 13:51:35;;;;;;;15.77;3.55;;;;;;;12.05;71.72;99882.00;1083951;54;20065;-78
2022/12/24 13:52:39;;;;;;;18.75;4.28;;;;;;;12.18;71.46;99885.13;1084013;54;20118;-78
2022/12/24 13:53:43;;;;;;;12.63;3.85;;;;;;;12.08;71.43;99879.84;1084055;54;20044;-76
2022/12/24 13:55:01;;;;;;;15.52;4.07;;;;;;;12.04;71.46;99881.19;1084658;39;20410;-76
2022/12/24 13:56:10;;;;;;;16.20;3.80;;;;;;;12.14;71.16;99887.25;1083809;54;20567;-76
2022/12/24 13:57:35;;;;;;;11.52;3.83;;;;;;;12.08;70.73;99884.38;1083969;54;20050;-76
2022/12/24 13:58:43;;;;;;;12.95;3.85;;;;;;;12.17;71.05;99880.75;1083946;39;20434;-77
2022/12/24 13:59:46;;;;;;;15.98;4.13;;;;;;;12.15;70.97;99885.44;1083788;54;20139;-76
2022/12/24 14:01:00;;;;;;;14.05;3.45;;;;;;;12.14;70.49;99881.06;1083413;54;20034;-77
2022/12/24 14:02:02;;;;;;;10.02;2.70;;;;;;;12.39;70.16;99882.03;1084151;54;20042;-77
2022/12/24 14:03:20;;;;;;;12.63;3.28;;;;;;;12.50;70.03;99870.16;1084274;54;20137;-75
2022/12/24 14:04:28;;;;;;;8.93;2.92;;;;;;;12.59;69.89;99871.88;1084098;54;20125;-78
2022/12/24 14:05:33;;;;;;;10.70;2.88;;;;;;;12.67;69.32;99878.25;1084264;54;20065;-77
2022/12/24 14:06:42;;;;;;;9.63;3.13;;;;;;;12.58;69.77;99872.88;1084236;54;20073;-77
2022/12/24 14:07:47;;;;;;;11.23;3.20;;;;;;;12.52;70.06;99873.53;1084135;54;20065;-76
2022/12/24 14:08:55;;;;;;;9.63;2.58;;;;;;;12.58;69.83;99870.19;1083945;54;20061;-79
2022/12/24 14:09:58;;;;;;;10.10;3.15;;;;;;;12.43;70.22;99878.00;1084231;54;20066;-81
2022/12/24 14:11:09;;;;;;;11.70;3.42;;;;;;;12.42;69.88;99875.50;1084550;54;20035;-75
2022/12/24 14:12:29;;;;;;;13.23;4.10;;;;;;;12.46;70.02;99874.19;1084116;54;20161;-77
2022/12/24 14:14:11;;;;;;;15.80;3.28;;;;;;;12.44;69.67;99873.50;1083966;54;20038;-77
2022/12/24 14:15:59;;;;;;;14.50;3.70;;;;;;;12.17;69.78;99878.91;1083857;47;20042;-76
2022/12/24 14:17:14;;;;;;;15.32;3.53;;;;;;;12.17;70.37;99878.06;1084440;46;20035;-79
2022/12/24 14:18:17;;;;;;;15.07;4.10;;;;;;;12.32;70.22;99881.00;1084113;54;20050;-76
2022/12/24 14:19:24;;;;;;;13.20;3.60;;;;;;;12.33;70.08;99882.66;1084052;54;20154;-76
2022/12/24 14:20:26;;;;;;;11.70;3.58;;;;;;;12.50;69.82;99880.91;1084151;54;20062;-76
2022/12/24 14:21:35;;;;;;;10.45;3.00;;;;;;;12.56;69.42;99882.94;1084024;54;20030;-76
2022/12/24 14:22:43;;;;;;;11.50;2.75;;;;;;;12.36;69.91;99881.50;1084029;54;20054;-76
2022/12/24 14:23:54;;;;;;;10.65;3.63;;;;;;;12.31;69.69;99882.81;1084276;54;20045;-77
2022/12/24 14:24:58;;;;;;;9.65;2.92;;;;;;;12.41;69.97;99874.69;1083305;54;20039;-76
2022/12/24 14:26:04;;;;;;;11.98;3.90;;;;;;;12.29;70.15;99876.78;1084149;54;20038;-75
2022/12/24 14:27:17;;;;;;;11.43;3.05;;;;;;;12.28;69.84;99872.41;1084647;39;20094;-77
2022/12/24 14:28:25;;;;;;;14.43;3.45;;;;;;;12.26;69.90;99878.94;1083972;54;20137;-77
2022/12/24 14:29:33;;;;;;;14.95;3.70;;;;;;;12.30;69.94;99873.09;1084601;46;20034;-77
2022/12/24 14:30:35;;;;;;;15.25;4.13;;;;;;;12.35;70.05;99877.16;1084045;54;20273;-75
2022/12/24 14:31:39;;;;;;;8.32;2.70;;;;;;;12.43;69.80;99869.97;1083280;54;20034;-75
2022/12/24 14:32:44;;;;;;;11.73;3.45;;;;;;;12.46;69.37;99876.88;1083382;54;20129;-76
2022/12/24 14:33:48;;;;;;;10.52;3.10;;;;;;;12.50;69.29;99867.50;1083479;54;20063;-75
2022/12/24 14:35:05;;;;;;;10.10;3.22;;;;;;;12.49;68.96;99865.81;1083757;39;20669;-75
2022/12/24 14:36:12;;;;;;;10.38;3.25;;;;;;;12.44;69.65;99868.16;1083682;54;20044;-75
2022/12/24 14:37:25;;;;;;;13.40;3.75;;;;;;;12.40;69.42;99867.63;1084440;39;20458;-74
2022/12/24 14:38:27;;;;;;;13.13;4.70;;;;;;;12.43;69.85;99871.81;1083634;54;20050;-75
2022/12/24 14:39:36;;;;;;;12.63;5.95;;;;;;;12.41;69.72;99871.13;1083507;54;20042;-75
2022/12/24 14:40:50;;;;;;;14.00;4.28;;;;;;;12.41;69.70;99880.03;1083610;54;20039;-76
2022/12/24 14:42:01;;;;;;;14.30;5.18;;;;;;;12.17;69.96;99878.06;1083503;47;20663;-75
2022/12/24 14:43:16;;;;;;;15.55;5.22;;;;;;;12.21;69.92;99878.59;1083658;54;20042;-75
2022/12/24 14:44:26;;;;;;;16.65;5.57;;;;;;;12.22;70.20;99881.09;1084266;46;20041;-76
2022/12/24 14:45:36;;;;;;;11.77;4.68;;;;;;;12.22;70.30;99875.75;1083823;54;20042;-75
2022/12/24 14:46:46;;;;;;;12.70;4.03;;;;;;;12.33;69.71;99888.00;1083680;54;20050;-76
2022/12/24 14:47:55;;;;;;;;;;;;;;;12.15;70.43;99883.56;1084461;39;20653;-76
2022/12/24 14:49:06;;;;;;;12.15;4.38;;;;;;;12.14;70.38;99878.38;1083372;54;20006;-75
2022/12/24 14:50:33;;;;;;;13.00;4.60;;;;;;;12.17;70.52;99878.06;1084066;46;20074;-75
2022/12/24 14:51:45;;;;;;;10.80;4.15;;;;;;;12.11;70.63;99884.03;1084318;31;20558;-76
2022/12/24 14:52:59;;;;;;;15.93;5.47;;;;;;;12.05;70.90;99873.97;1084062;46;20130;-75
2022/12/24 14:54:28;;;;;;;12.77;4.60;;;;;;;12.06;70.94;99878.34;1083657;54;20053;-76
2022/12/24 14:55:37;;;;;;;12.48;4.80;;;;;;;12.02;70.92;99875.13;1083548;54;20073;-76
2022/12/24 14:56:39;;;;;;;13.07;4.80;;;;;;;12.04;71.26;99872.28;1083421;54;20044;-74
2022/12/24 14:57:43;;;;;;;12.63;4.68;;;;;;;12.04;70.98;99880.34;1083643;54;20062;-74
2022/12/24 14:58:45;;;;;;;13.77;4.47;;;;;;;11.96;71.47;99879.25;1083623;54;20134;-75
2022/12/24 14:59:51;;;;;;;13.43;3.67;;;;;;;11.93;71.71;99890.28;1083614;54;20085;-76
2022/12/24 15:00:55;;;;;;;17.60;4.40;;;;;;;11.98;71.46;99888.00;1083467;46;20129;-75
2022/12/24 15:02:20;;;;;;;12.05;3.58;;;;;;;11.97;71.25;99893.47;1083540;54;20033;-75
2022/12/24 15:03:26;;;;;;;13.02;3.75;;;;;;;11.97;71.58;99890.81;1083629;54;20069;-75
2022/12/24 15:04:30;;;;;;;12.50;4.00;;;;;;;11.83;71.64;99908.28;1083582;54;20137;-77
2022/12/24 15:05:32;;;;;;;11.95;3.00;;;;;;;11.83;72.03;99902.94;1083308;54;20042;-76
2022/12/24 15:06:38;;;;;;;18.15;4.47;;;;;;;11.79;72.11;99906.94;1083571;54;20026;-75
2022/12/24 15:07:44;;;;;;;12.93;3.60;;;;;;;11.80;71.93;99904.09;1083848;54;20038;-78
2022/12/24 15:08:51;;;;;;;9.10;3.08;;;;;;;11.92;71.39;99902.00;1083441;54;20058;-77
2022/12/24 15:09:53;;;;;;;12.15;3.50;;;;;;;11.85;71.70;99911.66;1083420;54;20042;-77
2022/12/24 15:11:02;;;;;;;9.57;3.05;;;;;;;11.88;71.56;99903.31;1083239;54;20046;-78
2022/12/24 15:12:04;;;;;;;12.10;4.03;;;;;;;11.81;71.67;99910.28;1083441;54;20067;-76
2022/12/24 15:13:16;;;;;;;10.88;3.58;;;;;;;11.83;71.62;99901.09;1083460;54;20082;-77
2022/12/24 15:14:21;;;;;;;11.02;3.70;;;;;;;11.84;71.66;99893.91;1084251;31;20512;-77
2022/12/24 15:15:23;;;;;;;9.88;3.55;;;;;;;11.91;71.50;99896.81;1083610;54;20134;-76
2022/12/24 15:16:31;;;;;;;11.60;3.88;;;;;;;11.94;71.49;99891.97;1083620;54;20057;-76
2022/12/24 15:17:34;;;;;;;8.18;3.38;;;;;;;11.96;71.48;99884.63;1083718;54;20719;-76
2022/12/24 15:18:47;;;;;;;11.98;3.90;;;;;;;11.97;71.29;99889.00;1083221;54;20049;-77
2022/12/24 15:19:51;;;;;;;13.18;4.18;;;;;;;11.92;71.61;99885.91;1083310;54;20156;-76
2022/12/24 15:21:00;;;;;;;8.98;3.88;;;;;;;11.96;71.57;99886.44;1083262;54;20050;-77
2022/12/24 15:22:03;;;;;;;12.02;4.55;;;;;;;11.96;71.65;99887.28;1083351;54;20054;-77
2022/12/24 15:23:07;;;;;;;12.95;4.10;;;;;;;11.86;71.79;99895.41;1083275;54;20038;-77
2022/12/24 15:24:23;;;;;;;12.45;5.05;;;;;;;11.81;72.04;99887.03;1083263;54;20119;-76
2022/12/24 15:25:30;;;;;;;12.57;5.05;;;;;;;11.73;72.43;99899.50;1083075;54;21371;-78
2022/12/24 15:26:35;;;;;;;13.88;5.57;;;;;;;11.87;72.19;99896.28;1083329;54;20069;-77
2022/12/24 15:27:40;;;;;;;12.55;5.38;;;;;;;11.90;71.69;99895.97;1083456;54;20050;-78
2022/12/24 15:28:42;;;;;;;10.73;5.07;;;;;;;11.90;71.59;99898.66;1083670;46;20046;-76
2022/12/24 15:29:48;;;;;;;13.05;5.05;;;;;;;12.01;71.62;99901.06;1083509;54;20045;-77
2022/12/24 15:31:06;;;;;;;9.98;4.80;;;;;;;12.02;71.52;99901.94;1084083;31;20563;-77
2022/12/24 15:32:14;;;;;;;9.63;4.82;;;;;;;11.91;71.65;99899.47;1083445;54;20062;-76
2022/12/24 15:33:22;;;;;;;12.15;5.20;;;;;;;11.94;72.00;99908.03;1084109;39;21064;-78
2022/12/24 15:34:35;;;;;;;11.80;5.07;;;;;;;11.94;71.57;99908.03;1084019;39;20621;-76
2022/12/24 15:35:58;;;;;;;10.57;4.35;;;;;;;11.96;71.56;99908.72;1083558;54;20042;-77
2022/12/24 15:37:05;;;;;;;9.57;4.35;;;;;;;11.90;71.97;99914.72;1083847;54;20139;-76
2022/12/24 15:38:23;;;;;;;9.82;4.53;;;;;;;11.93;71.82;99919.75;1083310;54;20073;-77
2022/12/24 15:39:27;;;;;;;11.30;4.97;;;;;;;11.89;71.68;99917.53;1083310;54;20115;-77
2022/12/24 15:40:29;;;;;;;9.88;4.15;;;;;;;11.87;71.88;99923.06;1084055;46;20063;-76
2022/12/24 15:42:12;;;;;;;9.82;4.85;;;;;;;11.82;72.06;99923.53;1083464;54;20165;-77
2022/12/24 15:43:01;;;;;;;14.15;6.82;;;;;;;11.70;72.51;99928.28;1083467;54;20034;-77
2022/12/24 15:44:06;;;;;;;16.13;6.20;;;;;;;11.80;72.13;99924.69;1083555;54;20035;-76
2022/12/24 15:45:14;;;;;;;10.27;5.10;;;;;;;11.87;72.03;99915.03;1083711;54;20077;-76
2022/12/24 15:46:22;;;;;;;11.10;5.07;;;;;;;11.91;71.90;99927.09;1085013;54;20050;-77
2022/12/24 15:47:28;;;;;;;11.90;4.88;;;;;;;11.91;71.62;99916.38;1085950;54;20238;-77
2022/12/24 15:48:35;;;;;;;9.55;4.50;;;;;;;11.94;71.84;99924.09;1086295;39;20543;-77
2022/12/24 15:49:42;;;;;;;11.63;4.93;;;;;;;11.92;71.81;99927.94;1085908;54;20038;-77
2022/12/24 15:50:45;;;;;;;9.90;4.88;;;;;;;11.94;71.86;99931.31;1086151;54;20046;-77
2022/12/24 15:51:49;;;;;;;10.15;4.78;;;;;;;11.97;71.60;99930.97;1086337;46;20046;-78
2022/12/24 15:52:51;;;;;;;13.45;4.70;;;;;;;11.98;71.43;99930.88;1086245;54;20053;-78
2022/12/24 15:54:00;;;;;;;11.00;4.80;;;;;;;12.00;71.89;99928.03;1086081;54;20610;-77